createdAt,value
2019-02-15T00:02:07.995Z,21.15
2019-02-15T00:04:36.384Z,19.57
2019-02-15T00:07:04.785Z,19.95
2019-02-15T00:09:33.156Z,20.15
2019-02-15T00:12:01.546Z,21.37
2019-02-15T00:14:33.004Z,20.95
2019-02-15T00:17:01.393Z,21.17
2019-02-15T00:19:31.411Z,21.15
2019-02-15T00:21:59.800Z,22.35
2019-02-15T00:24:28.183Z,21.52
2019-02-15T00:26:56.568Z,21.95
2019-02-15T00:29:24.966Z,22.70
2019-02-15T00:31:53.345Z,20.00
2019-02-15T00:34:21.737Z,23.00
2019-02-15T00:36:50.119Z,20.15
2019-02-15T00:39:18.511Z,18.98
2019-02-15T00:41:46.904Z,20.82
2019-02-15T00:44:15.297Z,20.10
2019-02-15T00:46:45.307Z,20.27
2019-02-15T00:49:15.348Z,21.27
2019-02-15T00:51:48.104Z,21.17
2019-02-15T00:54:26.796Z,20.62
2019-02-15T00:57:02.545Z,21.05
2019-02-15T00:59:35.340Z,20.02
2019-02-15T01:02:14.609Z,19.12
2019-02-15T01:04:47.441Z,19.37
2019-02-15T01:07:32.471Z,18.37
2019-02-15T01:10:05.473Z,19.52
2019-02-15T01:12:50.773Z,20.55
2019-02-15T01:15:19.243Z,19.82
2019-02-15T01:17:47.629Z,19.77
2019-02-15T01:20:16.026Z,20.23
2019-02-15T01:22:44.404Z,20.08
2019-02-15T01:25:12.804Z,19.60
2019-02-15T01:27:42.823Z,19.35
2019-02-15T01:30:12.856Z,19.45
2019-02-15T01:32:42.886Z,18.57
2019-02-15T01:35:15.591Z,19.32
2019-02-15T01:38:02.340Z,19.65
2019-02-15T01:40:38.282Z,20.60
2019-02-15T01:43:08.311Z,17.62
2019-02-15T01:45:38.373Z,20.82
2019-02-15T01:48:06.800Z,19.25
2019-02-15T01:50:35.191Z,20.20
2019-02-15T01:53:03.576Z,19.48
2019-02-15T01:55:31.968Z,19.85
2019-02-15T01:58:00.347Z,19.60
2019-02-15T02:00:30.465Z,20.48
2019-02-15T02:02:58.844Z,20.02
2019-02-15T02:05:27.236Z,20.02
2019-02-15T02:07:55.614Z,19.20
2019-02-15T02:10:24.010Z,20.50
2019-02-15T02:12:52.392Z,20.23
2019-02-15T02:15:20.787Z,19.12
2019-02-15T02:17:49.168Z,20.57
2019-02-15T02:20:17.560Z,19.55
2019-02-15T02:22:45.940Z,19.27
2019-02-15T02:25:14.336Z,20.37
2019-02-15T02:27:42.721Z,19.45
2019-02-15T02:30:11.264Z,19.90
2019-02-15T02:32:39.647Z,19.65
2019-02-15T02:35:08.729Z,18.85
2019-02-15T02:37:37.108Z,20.48
2019-02-15T02:40:07.946Z,20.02
2019-02-15T02:42:36.329Z,18.85
2019-02-15T02:45:06.759Z,18.75
2019-02-15T02:50:02.985Z,18.25
2019-02-15T02:52:31.356Z,18.57
2019-02-15T02:54:59.744Z,18.57
2019-02-15T02:57:28.130Z,17.73
2019-02-15T02:59:56.514Z,19.62
2019-02-15T03:02:24.908Z,19.50
2019-02-15T03:04:53.289Z,18.40
2019-02-15T03:07:21.713Z,19.07
2019-02-15T03:09:50.101Z,19.48
2019-02-15T03:12:18.493Z,19.20
2019-02-15T03:14:46.881Z,17.87
2019-02-15T03:17:15.264Z,19.55
2019-02-15T03:19:43.659Z,19.02
2019-02-15T03:22:12.037Z,19.50
2019-02-15T03:24:40.425Z,18.10
2019-02-15T03:27:08.821Z,19.35
2019-02-15T03:29:37.201Z,19.07
2019-02-15T03:32:05.601Z,19.25
2019-02-15T03:34:36.232Z,19.77
2019-02-15T03:37:06.056Z,18.65
2019-02-15T03:39:39.141Z,20.27
2019-02-15T03:42:09.178Z,23.20
2019-02-15T03:44:37.634Z,23.73
2019-02-15T03:47:06.018Z,23.67
2019-02-15T03:49:34.395Z,24.47
2019-02-15T03:52:02.792Z,24.25
2019-02-15T03:54:31.442Z,23.18
2019-02-15T03:56:59.901Z,22.00
2019-02-15T03:59:28.641Z,23.50
2019-02-15T04:01:57.101Z,22.50
2019-02-15T04:04:25.707Z,22.87
2019-02-15T04:06:54.114Z,21.62
2019-02-15T04:09:22.491Z,21.95
2019-02-15T04:11:50.877Z,21.80
2019-02-15T04:14:19.270Z,24.32
2019-02-15T04:16:47.916Z,23.45
2019-02-15T04:19:16.303Z,23.62
2019-02-15T04:21:44.695Z,33.00
2019-02-15T04:24:13.639Z,28.92
2019-02-15T04:26:42.143Z,28.40
2019-02-15T04:29:10.529Z,24.12
2019-02-15T04:31:38.905Z,22.05
2019-02-15T04:34:07.296Z,21.65
2019-02-15T04:36:35.686Z,21.85
2019-02-15T04:39:04.789Z,20.80
2019-02-15T04:41:33.438Z,20.23
2019-02-15T04:44:01.822Z,24.47
2019-02-15T04:46:30.204Z,28.25
2019-02-15T04:48:58.714Z,21.70
2019-02-15T04:51:27.058Z,25.02
2019-02-15T04:53:55.440Z,27.62
2019-02-15T04:56:23.829Z,23.70
2019-02-15T04:58:52.230Z,36.15
2019-02-15T05:01:20.614Z,49.80
2019-02-15T05:03:49.022Z,40.60
2019-02-15T05:06:17.463Z,31.35
2019-02-15T05:08:45.849Z,30.50
2019-02-15T05:11:14.237Z,26.82
2019-02-15T05:13:42.632Z,24.12
2019-02-15T05:16:11.004Z,21.82
2019-02-15T05:18:39.403Z,23.83
2019-02-15T05:21:07.790Z,29.90
2019-02-15T05:23:36.189Z,23.25
2019-02-15T05:26:04.560Z,21.90
2019-02-15T05:28:32.952Z,21.68
2019-02-15T05:31:01.340Z,23.30
2019-02-15T05:33:29.736Z,28.85
2019-02-15T05:35:58.119Z,28.98
2019-02-15T05:38:26.508Z,29.23
2019-02-15T05:40:54.900Z,59.23
2019-02-15T05:43:23.291Z,78.40
2019-02-15T05:45:51.688Z,118.02
2019-02-15T05:48:20.345Z,135.55
2019-02-15T05:50:48.745Z,157.07
2019-02-15T05:53:17.128Z,132.52
2019-02-15T05:55:45.529Z,118.20
2019-02-15T05:58:13.916Z,111.80
2019-02-15T06:00:42.333Z,123.25
2019-02-15T06:03:10.722Z,106.45
2019-02-15T06:05:39.117Z,88.65
2019-02-15T06:08:07.504Z,75.25
2019-02-15T06:10:35.888Z,64.07
2019-02-15T06:13:04.276Z,45.50
2019-02-15T06:15:32.677Z,40.98
2019-02-15T06:18:01.070Z,45.12
2019-02-15T06:20:29.463Z,42.08
2019-02-15T06:22:57.851Z,39.30
2019-02-15T06:25:26.561Z,30.17
2019-02-15T06:27:55.026Z,32.50
2019-02-15T06:30:23.418Z,32.83
2019-02-15T06:32:51.801Z,31.77
2019-02-15T06:35:20.675Z,31.37
2019-02-15T06:37:49.391Z,27.62
2019-02-15T06:40:17.777Z,30.55
2019-02-15T06:42:46.160Z,31.05
2019-02-15T06:45:24.018Z,29.30
2019-02-15T06:47:44.673Z,31.70
2019-02-15T06:50:13.079Z,30.15
2019-02-15T06:52:41.468Z,23.90
2019-02-15T06:55:09.856Z,24.12
2019-02-15T06:57:38.575Z,24.18
2019-02-15T07:00:14.458Z,21.82
2019-02-15T07:02:44.552Z,21.12
2019-02-15T07:05:17.283Z,21.17
2019-02-15T07:07:45.919Z,21.35
2019-02-15T07:10:14.305Z,21.23
2019-02-15T07:12:42.692Z,21.90
2019-02-15T07:15:11.080Z,19.82
2019-02-15T07:17:39.468Z,18.85
2019-02-15T07:20:09.689Z,16.65
2019-02-15T07:22:38.083Z,16.70
2019-02-15T07:25:12.979Z,18.60
2019-02-15T07:27:41.386Z,16.55
2019-02-15T07:30:12.310Z,14.93
2019-02-15T07:32:40.700Z,15.38
2019-02-15T07:35:09.656Z,14.85
2019-02-15T07:37:38.059Z,15.78
2019-02-15T07:40:08.652Z,14.75
2019-02-15T07:42:37.049Z,14.43
2019-02-15T07:45:10.267Z,14.20
2019-02-15T07:47:38.664Z,13.50
2019-02-15T07:50:13.287Z,13.50
2019-02-15T07:52:41.683Z,13.75
2019-02-15T07:55:10.134Z,12.82
2019-02-15T07:57:38.519Z,13.00
2019-02-15T08:00:14.781Z,12.98
2019-02-15T08:02:43.181Z,13.48
2019-02-15T08:05:11.564Z,13.13
2019-02-15T08:07:39.953Z,13.18
2019-02-15T08:10:10.743Z,13.65
2019-02-15T08:12:39.183Z,13.20
2019-02-15T08:15:09.692Z,12.55
2019-02-15T08:17:38.088Z,13.45
2019-02-15T08:20:11.006Z,12.90
2019-02-15T08:22:39.411Z,13.65
2019-02-15T08:25:08.939Z,14.10
2019-02-15T08:27:37.397Z,13.72
2019-02-15T08:30:08.858Z,13.72
2019-02-15T08:32:37.285Z,13.38
2019-02-15T08:35:08.110Z,12.82
2019-02-15T08:37:36.500Z,14.40
2019-02-15T08:40:07.728Z,13.32
2019-02-15T08:42:36.136Z,15.08
2019-02-15T08:45:07.237Z,13.48
2019-02-15T08:47:35.679Z,14.70
2019-02-15T08:50:05.721Z,13.95
2019-02-15T08:52:34.126Z,13.78
2019-02-15T08:55:02.581Z,13.78
2019-02-15T08:57:30.972Z,13.08
2019-02-15T08:59:59.376Z,13.83
2019-02-15T09:02:27.762Z,14.58
2019-02-15T09:04:56.156Z,13.35
2019-02-15T09:07:24.801Z,13.95
2019-02-15T09:09:53.200Z,12.90
2019-02-15T09:12:21.869Z,12.88
2019-02-15T09:14:50.274Z,11.75
2019-02-15T09:17:18.941Z,12.25
2019-02-15T09:19:47.344Z,13.22
2019-02-15T09:22:15.737Z,12.50
2019-02-15T09:24:44.128Z,11.90
2019-02-15T09:27:14.158Z,12.85
2019-02-15T09:29:42.556Z,14.03
2019-02-15T09:32:10.973Z,13.30
2019-02-15T09:34:39.397Z,13.45
2019-02-15T09:37:07.792Z,12.93
2019-02-15T09:39:36.508Z,14.18
2019-02-15T09:42:04.897Z,13.58
2019-02-15T09:44:33.295Z,13.10
2019-02-15T09:47:01.685Z,12.98
2019-02-15T09:49:30.087Z,13.20
2019-02-15T09:51:58.472Z,15.00
2019-02-15T09:54:26.872Z,13.83
2019-02-15T09:56:55.265Z,13.38
2019-02-15T09:59:23.669Z,13.32
2019-02-15T10:01:52.058Z,13.58
2019-02-15T10:04:20.625Z,12.45
2019-02-15T10:06:49.013Z,13.45
2019-02-15T10:09:17.412Z,13.65
2019-02-15T10:11:45.876Z,13.00
2019-02-15T10:14:14.268Z,13.55
2019-02-15T10:16:42.662Z,13.65
2019-02-15T10:19:11.048Z,13.20
2019-02-15T10:21:39.443Z,13.25
2019-02-15T10:24:07.839Z,13.55
2019-02-15T10:26:36.248Z,12.63
2019-02-15T10:29:04.641Z,13.75
2019-02-15T10:31:33.056Z,13.65
2019-02-15T10:34:01.442Z,13.85
2019-02-15T10:36:29.844Z,12.45
2019-02-15T10:38:58.236Z,13.83
2019-02-15T10:41:26.644Z,13.70
2019-02-15T10:43:55.029Z,13.35
2019-02-15T10:46:23.424Z,13.22
2019-02-15T10:48:51.828Z,15.72
2019-02-15T10:51:20.220Z,12.13
2019-02-15T10:53:48.628Z,14.45
2019-02-15T10:56:17.032Z,13.62
2019-02-15T10:58:45.428Z,13.90
2019-02-15T11:01:13.836Z,13.38
2019-02-15T11:03:42.217Z,12.47
2019-02-15T11:06:10.619Z,14.55
2019-02-15T11:08:39.007Z,13.13
2019-02-15T11:11:07.424Z,14.80
2019-02-15T11:13:35.817Z,12.78
2019-02-15T11:16:04.224Z,14.23
2019-02-15T11:18:32.621Z,14.03
2019-02-15T11:21:01.020Z,13.00
2019-02-15T11:23:29.416Z,12.68
2019-02-15T11:25:57.819Z,12.60
2019-02-15T11:28:26.214Z,12.28
2019-02-15T11:30:54.599Z,12.85
2019-02-15T11:33:22.996Z,14.07
2019-02-15T11:35:51.392Z,11.60
2019-02-15T11:38:19.794Z,12.73
2019-02-15T11:40:48.176Z,12.60
2019-02-15T11:43:16.576Z,12.47
2019-02-15T11:45:44.977Z,12.95
2019-02-15T11:48:13.372Z,12.05
2019-02-15T11:50:41.753Z,11.80
2019-02-15T11:53:10.159Z,13.35
2019-02-15T11:55:38.548Z,13.18
2019-02-15T11:58:06.964Z,12.68
2019-02-15T12:00:36.728Z,12.03
2019-02-15T12:03:05.140Z,12.23
2019-02-15T12:05:33.534Z,12.25
2019-02-15T12:08:01.931Z,12.20
2019-02-15T12:10:30.316Z,12.60
2019-02-15T12:12:58.720Z,11.60
2019-02-15T12:15:27.109Z,10.78
2019-02-15T12:17:55.508Z,12.37
2019-02-15T12:20:23.900Z,11.93
2019-02-15T12:22:52.580Z,10.82
2019-02-15T12:25:20.963Z,12.25
2019-02-15T12:27:49.368Z,10.63
2019-02-15T12:30:17.777Z,12.07
2019-02-15T12:32:46.186Z,11.63
2019-02-15T12:35:14.577Z,10.45
2019-02-15T12:37:43.031Z,11.50
2019-02-15T12:40:12.598Z,10.18
2019-02-15T12:42:41.071Z,10.48
2019-02-15T12:45:12.550Z,10.55
2019-02-15T12:47:40.948Z,11.05
2019-02-15T12:50:15.321Z,9.78
2019-02-15T12:52:43.832Z,10.70
2019-02-15T12:55:12.276Z,10.10
2019-02-15T12:57:40.712Z,10.53
2019-02-15T13:00:14.696Z,9.68
2019-02-15T13:02:43.084Z,8.85
2019-02-15T13:05:12.645Z,9.58
2019-02-15T13:07:41.029Z,9.43
2019-02-15T13:10:12.804Z,9.03
2019-02-15T13:12:41.192Z,7.05
2019-02-15T13:15:11.468Z,7.55
2019-02-15T13:17:39.856Z,7.30
2019-02-15T13:20:09.594Z,7.28
2019-02-15T13:22:37.981Z,7.62
2019-02-15T13:25:07.522Z,6.70
2019-02-15T13:27:35.975Z,7.70
2019-02-15T13:30:12.167Z,8.03
2019-02-15T13:32:40.901Z,7.53
2019-02-15T13:35:18.571Z,7.72
2019-02-15T13:37:46.957Z,4.25
2019-02-15T13:40:15.441Z,4.35
2019-02-15T13:42:43.803Z,4.75
2019-02-15T13:45:13.582Z,5.12
2019-02-15T13:47:41.956Z,6.92
2019-02-15T13:50:12.966Z,5.78
2019-02-15T13:52:41.680Z,6.37
2019-02-15T13:55:10.747Z,6.12
2019-02-15T13:57:39.139Z,4.80
2019-02-15T14:00:13.460Z,5.35
2019-02-15T14:02:41.836Z,4.78
2019-02-15T14:05:11.998Z,5.50
2019-02-15T14:07:40.372Z,6.25
2019-02-15T14:10:14.933Z,5.05
2019-02-15T14:12:43.324Z,4.95
2019-02-15T14:15:12.348Z,3.47
2019-02-15T14:17:44.921Z,4.12
2019-02-15T14:20:12.185Z,2.92
2019-02-15T14:22:40.639Z,3.05
2019-02-15T14:25:10.880Z,2.80
2019-02-15T14:27:39.270Z,2.77
2019-02-15T14:30:14.556Z,2.85
2019-02-15T14:32:43.017Z,3.02
2019-02-15T14:35:13.467Z,2.70
2019-02-15T14:37:42.035Z,3.00
2019-02-15T14:40:11.473Z,2.75
2019-02-15T14:42:39.885Z,2.98
2019-02-15T14:45:10.194Z,2.58
2019-02-15T14:47:38.603Z,2.45
2019-02-15T14:50:08.717Z,3.02
2019-02-15T14:52:37.111Z,2.87
2019-02-15T14:55:07.342Z,3.60
2019-02-15T14:57:35.733Z,2.83
2019-02-15T15:00:05.936Z,3.55
2019-02-15T15:02:34.324Z,2.83
2019-02-15T15:05:02.712Z,2.45
2019-02-15T15:07:31.104Z,2.27
2019-02-15T15:09:59.499Z,2.40
2019-02-15T15:12:28.279Z,2.87
2019-02-15T15:14:56.664Z,2.65
2019-02-15T15:17:25.064Z,2.67
2019-02-15T15:19:53.452Z,2.45
2019-02-15T15:22:22.394Z,2.77
2019-02-15T15:24:50.792Z,2.58
2019-02-15T15:27:19.190Z,3.25
2019-02-15T15:29:47.576Z,3.10
2019-02-15T15:32:15.980Z,3.52
2019-02-15T15:34:44.368Z,4.00
2019-02-15T15:37:16.445Z,3.87
2019-02-15T15:39:42.887Z,3.77
2019-02-15T15:42:11.286Z,4.00
2019-02-15T15:44:39.680Z,4.37
2019-02-15T15:47:08.077Z,4.10
2019-02-15T15:49:36.476Z,4.22
2019-02-15T15:52:04.864Z,3.75
2019-02-15T15:54:33.260Z,3.77
2019-02-15T15:57:01.642Z,3.62
2019-02-15T15:59:30.060Z,3.80
2019-02-15T16:01:58.452Z,4.30
2019-02-15T16:04:26.848Z,4.10
2019-02-15T16:06:55.477Z,4.20
2019-02-15T16:09:23.936Z,4.40
2019-02-15T16:11:52.404Z,3.87
2019-02-15T16:14:20.830Z,4.30
2019-02-15T16:16:49.195Z,4.25
2019-02-15T16:19:17.581Z,4.28
2019-02-15T16:21:45.965Z,4.25
2019-02-15T16:24:14.361Z,4.20
2019-02-15T16:26:42.744Z,4.17
2019-02-15T16:29:11.131Z,3.90
2019-02-15T16:31:39.515Z,4.65
2019-02-15T16:34:07.914Z,7.05
2019-02-15T16:36:36.304Z,7.92
2019-02-15T16:39:05.841Z,8.68
2019-02-15T16:41:34.231Z,9.15
2019-02-15T16:44:02.621Z,10.08
2019-02-15T16:46:31.305Z,10.68
2019-02-15T16:48:59.700Z,9.73
2019-02-15T16:51:28.093Z,9.70
2019-02-15T16:53:56.492Z,9.80
2019-02-15T16:56:24.879Z,9.60
2019-02-15T16:58:53.276Z,9.93
2019-02-15T17:01:21.998Z,9.68
2019-02-15T17:06:14.465Z,9.35
2019-02-15T17:08:42.857Z,10.93
2019-02-15T17:11:11.261Z,9.93
2019-02-15T17:13:39.644Z,9.33
2019-02-15T17:16:08.044Z,9.83
2019-02-15T17:18:36.438Z,10.15
2019-02-15T17:21:04.851Z,10.80
2019-02-15T17:23:33.244Z,11.12
2019-02-15T17:26:01.645Z,10.50
2019-02-15T17:28:30.041Z,10.70
2019-02-15T17:30:58.448Z,9.68
2019-02-15T17:33:26.844Z,11.18
2019-02-15T17:35:55.237Z,11.28
2019-02-15T17:38:23.628Z,10.82
2019-02-15T17:40:52.027Z,9.60
2019-02-15T17:43:20.422Z,11.48
2019-02-15T17:45:48.821Z,10.75
2019-02-15T17:48:17.225Z,10.82
2019-02-15T17:50:45.629Z,10.40
2019-02-15T17:53:14.017Z,10.48
2019-02-15T17:55:42.424Z,10.68
2019-02-15T17:58:10.808Z,9.70
2019-02-15T18:00:39.208Z,11.03
2019-02-15T18:03:07.588Z,9.25
2019-02-15T18:05:36.005Z,10.98
2019-02-15T18:08:04.396Z,9.48
2019-02-15T18:10:32.785Z,11.50
2019-02-15T18:13:01.190Z,10.98
2019-02-15T18:15:29.568Z,10.80
2019-02-15T18:17:57.968Z,9.48
2019-02-15T18:20:26.362Z,9.73
2019-02-15T18:22:54.760Z,9.58
2019-02-15T18:25:23.154Z,10.13
2019-02-15T18:27:51.548Z,10.30
2019-02-15T18:30:19.940Z,8.30
2019-02-15T18:32:48.350Z,9.33
2019-02-15T18:35:16.729Z,11.30
2019-02-15T18:37:45.187Z,9.93
2019-02-15T18:40:13.637Z,8.73
2019-02-15T18:42:42.040Z,9.55
2019-02-15T18:45:15.590Z,9.75
2019-02-15T18:47:43.992Z,10.63
2019-02-15T18:50:12.376Z,11.05
2019-02-15T18:52:40.785Z,9.65
2019-02-15T18:55:10.417Z,10.55
2019-02-15T18:57:38.933Z,9.38
2019-02-15T19:00:15.729Z,10.60
2019-02-15T19:02:46.267Z,9.43
2019-02-15T19:05:14.720Z,10.85
2019-02-15T19:07:43.185Z,10.30
2019-02-15T19:10:17.398Z,11.90
2019-02-15T19:12:45.810Z,11.05
2019-02-15T19:15:16.031Z,11.88
2019-02-15T19:17:44.432Z,13.15
2019-02-15T19:20:15.066Z,12.85
2019-02-15T19:25:13.922Z,12.53
2019-02-15T19:27:42.311Z,12.05
2019-02-15T19:30:13.603Z,12.65
2019-02-15T19:32:42.089Z,12.93
2019-02-15T19:35:10.540Z,13.25
2019-02-15T19:37:38.928Z,12.05
2019-02-15T19:40:12.395Z,13.20
2019-02-15T19:42:42.028Z,12.35
2019-02-15T19:45:12.160Z,10.93
2019-02-15T19:47:40.580Z,13.48
2019-02-15T19:50:14.764Z,13.60
2019-02-15T19:52:43.295Z,12.63
2019-02-15T19:55:11.764Z,12.70
2019-02-15T19:57:40.152Z,12.68
2019-02-15T20:00:11.609Z,12.53
2019-02-15T20:02:40.067Z,13.45
2019-02-15T20:05:08.535Z,13.70
2019-02-15T20:07:36.937Z,12.55
2019-02-15T20:10:08.548Z,11.90
2019-02-15T20:12:37.000Z,12.37
2019-02-15T20:15:08.539Z,11.40
2019-02-15T20:17:36.925Z,11.30
2019-02-15T20:20:08.866Z,10.82
2019-02-15T20:22:37.251Z,12.20
2019-02-15T20:25:07.890Z,12.05
2019-02-15T20:30:06.192Z,10.13
2019-02-15T20:32:34.586Z,10.78
2019-02-15T20:35:03.028Z,11.95
2019-02-15T20:37:31.413Z,11.08
2019-02-15T20:39:59.805Z,10.45
2019-02-15T20:42:28.192Z,10.80
2019-02-15T20:44:56.584Z,10.80
2019-02-15T20:47:24.974Z,10.15
2019-02-15T20:49:58.178Z,10.53
2019-02-15T20:52:23.471Z,9.75
2019-02-15T20:54:51.879Z,10.55
2019-02-15T20:57:20.261Z,11.45
2019-02-15T20:59:48.965Z,9.95
2019-02-15T21:02:17.351Z,10.08
2019-02-15T21:04:45.740Z,9.65
2019-02-15T21:07:14.121Z,9.50
2019-02-15T21:09:42.517Z,10.63
2019-02-15T21:12:10.899Z,9.80
2019-02-15T21:14:39.555Z,9.73
2019-02-15T21:17:07.937Z,10.63
2019-02-15T21:19:36.330Z,9.90
2019-02-15T21:22:04.705Z,10.82
2019-02-15T21:24:33.109Z,10.30
2019-02-15T21:27:01.564Z,10.00
2019-02-15T21:29:29.951Z,9.88
2019-02-15T21:31:58.327Z,10.43
2019-02-15T21:34:26.712Z,9.98
2019-02-15T21:36:55.121Z,9.90
2019-02-15T21:39:23.510Z,10.10
2019-02-15T21:41:51.895Z,10.05
2019-02-15T21:44:20.374Z,9.85
2019-02-15T21:46:48.869Z,9.75
2019-02-15T21:49:17.283Z,9.85
2019-02-15T21:51:45.715Z,10.72
2019-02-15T21:54:14.355Z,11.43
2019-02-15T21:56:42.749Z,9.93
2019-02-15T21:59:11.131Z,11.45
2019-02-15T22:01:39.600Z,10.20
2019-02-15T22:04:07.977Z,9.30
2019-02-15T22:06:36.364Z,9.60
2019-02-15T22:09:06.099Z,11.03
2019-02-15T22:11:34.547Z,9.73
2019-02-15T22:14:03.115Z,10.30
2019-02-15T22:16:31.565Z,10.15
2019-02-15T22:18:59.951Z,10.93
2019-02-15T22:21:28.401Z,10.63
2019-02-15T22:23:56.780Z,10.28
2019-02-15T22:26:25.175Z,10.80
2019-02-15T22:28:53.556Z,10.82
2019-02-15T22:31:21.953Z,10.28
2019-02-15T22:33:50.331Z,10.20
2019-02-15T22:36:18.723Z,11.40
2019-02-15T22:38:47.110Z,11.03
2019-02-15T22:41:15.583Z,11.65
2019-02-15T22:43:44.020Z,10.95
2019-02-15T22:46:12.636Z,11.43
2019-02-15T22:48:41.022Z,10.72
2019-02-15T22:51:09.400Z,12.05
2019-02-15T22:53:37.868Z,11.90
2019-02-15T22:56:06.252Z,10.65
2019-02-15T22:58:34.654Z,11.28
2019-02-15T23:01:09.632Z,11.70
2019-02-15T23:03:38.040Z,11.70
2019-02-15T23:06:06.411Z,11.78
2019-02-15T23:08:34.804Z,11.55
2019-02-15T23:11:03.193Z,10.93
2019-02-15T23:13:31.664Z,11.12
2019-02-15T23:16:00.045Z,11.03
2019-02-15T23:18:28.501Z,10.58
2019-02-15T23:20:56.893Z,11.55
2019-02-15T23:23:25.289Z,10.93
2019-02-15T23:25:53.667Z,11.93
2019-02-15T23:28:22.077Z,11.00
2019-02-15T23:30:50.452Z,9.63
2019-02-15T23:33:18.912Z,10.78
2019-02-15T23:35:47.571Z,9.68
2019-02-15T23:38:15.964Z,11.73
2019-02-15T23:40:44.348Z,9.58
2019-02-15T23:43:12.746Z,10.90
2019-02-15T23:45:41.121Z,9.70
2019-02-15T23:48:09.518Z,9.98
2019-02-15T23:50:37.887Z,9.65
2019-02-15T23:53:06.641Z,10.35
2019-02-15T23:55:35.024Z,10.85
2019-02-15T23:58:03.411Z,10.55
